createdAt,value
2022-10-05T00:03:19.740Z,100
2022-10-05T00:09:19.711Z,100
2022-10-05T00:15:19.748Z,100
2022-10-05T00:21:19.742Z,100
2022-10-05T00:27:19.687Z,100
2022-10-05T00:33:19.699Z,100
2022-10-05T00:39:19.717Z,100
2022-10-05T00:45:19.705Z,100
2022-10-05T00:51:19.733Z,100
2022-10-05T00:57:19.751Z,100
2022-10-05T01:03:19.746Z,100
2022-10-05T01:09:19.673Z,100
2022-10-05T01:15:20.019Z,100
2022-10-05T01:21:19.684Z,100
2022-10-05T01:27:19.704Z,100
2022-10-05T01:33:19.713Z,100
2022-10-05T01:39:19.701Z,100
2022-10-05T01:45:19.692Z,100
2022-10-05T01:51:19.706Z,100
2022-10-05T01:57:19.704Z,100
2022-10-05T02:03:19.696Z,100
2022-10-05T02:09:19.721Z,100
2022-10-05T02:15:19.709Z,100
2022-10-05T02:21:19.718Z,100
2022-10-05T02:27:19.753Z,100
2022-10-05T02:33:19.684Z,100
2022-10-05T02:39:19.701Z,100
2022-10-05T02:45:19.723Z,100
2022-10-05T02:51:19.708Z,100
2022-10-05T02:57:19.722Z,100
2022-10-05T03:03:19.723Z,100
2022-10-05T03:09:19.723Z,100
2022-10-05T03:15:19.695Z,100
2022-10-05T03:21:19.716Z,100
2022-10-05T03:27:19.699Z,100
2022-10-05T03:33:19.692Z,100
2022-10-05T03:39:19.707Z,100
2022-10-05T03:45:19.702Z,100
2022-10-05T03:51:19.689Z,100
2022-10-05T03:57:19.725Z,100
2022-10-05T04:03:19.708Z,100
2022-10-05T04:09:19.749Z,100
2022-10-05T04:15:19.743Z,100
2022-10-05T04:21:23.494Z,100
2022-10-05T04:27:19.697Z,100
2022-10-05T04:33:19.703Z,100
2022-10-05T04:39:19.689Z,100
2022-10-05T04:45:19.694Z,100
2022-10-05T04:51:19.707Z,100
2022-10-05T04:57:19.689Z,100
2022-10-05T05:03:19.755Z,100
2022-10-05T05:09:19.743Z,100
2022-10-05T05:15:19.710Z,100
2022-10-05T05:21:19.700Z,100
2022-10-05T05:27:19.730Z,100
2022-10-05T05:33:19.689Z,100
2022-10-05T05:39:19.713Z,100
2022-10-05T05:45:19.714Z,100
2022-10-05T05:51:19.709Z,100
2022-10-05T05:57:19.719Z,100
2022-10-05T06:03:19.976Z,100
2022-10-05T06:09:19.706Z,100
2022-10-05T06:15:19.714Z,100
2022-10-05T06:21:19.704Z,100
2022-10-05T06:27:19.692Z,100
2022-10-05T06:33:19.678Z,100
2022-10-05T06:39:19.724Z,100
2022-10-05T06:45:19.701Z,100
2022-10-05T06:51:19.715Z,100
2022-10-05T06:57:19.716Z,100
2022-10-05T07:03:19.676Z,100
2022-10-05T07:09:19.682Z,100
2022-10-05T07:15:19.699Z,100
2022-10-05T07:21:19.684Z,100
2022-10-05T07:27:19.704Z,100
2022-10-05T07:33:19.718Z,100
2022-10-05T07:39:20.220Z,100
2022-10-05T07:45:19.678Z,100
2022-10-05T07:51:19.784Z,100
2022-10-05T07:57:19.710Z,100
2022-10-05T08:03:19.762Z,100
2022-10-05T08:09:19.820Z,100
2022-10-05T08:15:19.721Z,100
2022-10-05T08:21:19.696Z,100
2022-10-05T08:27:19.728Z,100
2022-10-05T08:33:19.695Z,100
2022-10-05T08:39:19.686Z,100
2022-10-05T08:45:19.726Z,100
2022-10-05T08:51:19.688Z,100
2022-10-05T08:57:19.711Z,100
2022-10-05T09:03:19.732Z,100
2022-10-05T09:09:19.684Z,100
2022-10-05T09:15:25.725Z,100
2022-10-05T09:21:19.736Z,100
2022-10-05T09:27:19.714Z,99.4
2022-10-05T09:33:19.696Z,97.1
2022-10-05T09:39:19.738Z,94
2022-10-05T09:45:21.446Z,89.2
2022-10-05T09:51:19.715Z,82.8
2022-10-05T09:57:19.768Z,70.1
2022-10-05T10:03:19.760Z,58.7
2022-10-05T10:09:19.703Z,57.9
2022-10-05T10:15:19.742Z,63
2022-10-05T10:21:19.695Z,62.1
2022-10-05T10:27:19.691Z,60.1
2022-10-05T10:33:19.748Z,66.1
2022-10-05T10:39:19.714Z,60.2
2022-10-05T10:45:19.718Z,61.7
2022-10-05T10:51:19.752Z,61.2
2022-10-05T10:57:19.707Z,56.4
2022-10-05T11:03:19.750Z,61.7
2022-10-05T11:09:19.731Z,63.2
2022-10-05T11:15:19.946Z,63.5
2022-10-05T11:21:19.700Z,64.6
2022-10-05T11:27:19.767Z,66.3
2022-10-05T11:33:19.737Z,62
2022-10-05T11:39:19.710Z,60.8
2022-10-05T11:45:19.814Z,63.1
2022-10-05T11:51:19.721Z,62.3
2022-10-05T11:57:19.748Z,64.3
2022-10-05T12:03:19.823Z,64.3
2022-10-05T12:09:19.753Z,61.6
2022-10-05T12:15:19.721Z,61.1
2022-10-05T12:21:19.757Z,60.8
2022-10-05T12:27:19.720Z,63.8
2022-10-05T12:33:19.753Z,60.9
2022-10-05T12:39:19.754Z,61.6
2022-10-05T12:45:19.734Z,60.4
2022-10-05T12:51:19.742Z,59.2
2022-10-05T12:57:19.760Z,59.5
2022-10-05T13:03:19.734Z,61.7
2022-10-05T13:09:19.884Z,63
2022-10-05T13:15:19.773Z,62.9
2022-10-05T13:21:19.734Z,65.2
2022-10-05T13:27:19.741Z,63.6
2022-10-05T13:33:19.799Z,64.7
2022-10-05T13:39:19.741Z,63.9
2022-10-05T13:45:19.749Z,63.7
2022-10-05T13:51:19.856Z,62.9
2022-10-05T13:57:19.765Z,64.6
2022-10-05T14:03:19.785Z,66.2
2022-10-05T14:09:19.911Z,64.6
2022-10-05T14:19:19.757Z,66.5
2022-10-05T14:25:19.831Z,66
2022-10-05T14:31:20.074Z,67.3
2022-10-05T14:37:19.767Z,67.7
2022-10-05T14:43:19.759Z,67.7
2022-10-05T14:49:19.755Z,66.4
2022-10-05T14:55:19.754Z,68
2022-10-05T15:01:19.880Z,68.7
2022-10-05T15:07:19.779Z,69.1
2022-10-05T15:13:19.788Z,69
2022-10-05T15:19:19.804Z,69.8
2022-10-05T15:25:19.771Z,70.8
2022-10-05T15:31:19.901Z,71.4
2022-10-05T15:37:19.783Z,72.5
2022-10-05T15:43:19.747Z,73.6
2022-10-05T15:49:19.766Z,75.1
2022-10-05T15:55:20.968Z,75.7
2022-10-05T16:01:19.926Z,77.5
2022-10-05T16:07:19.750Z,79.1
2022-10-05T16:13:19.761Z,80.7
2022-10-05T16:19:19.769Z,81.7
2022-10-05T16:25:19.764Z,82.9
2022-10-05T16:31:19.858Z,82.7
2022-10-05T16:37:19.780Z,84.4
2022-10-05T16:43:19.743Z,85
2022-10-05T16:49:19.795Z,85.7
2022-10-05T16:55:26.878Z,85.2
2022-10-05T17:01:19.844Z,85.8
2022-10-05T17:07:19.806Z,86.4
2022-10-05T17:13:19.781Z,87.6
2022-10-05T17:19:19.773Z,89
2022-10-05T17:25:19.797Z,88.5
2022-10-05T17:31:19.818Z,89.5
2022-10-05T17:37:19.772Z,90.6
2022-10-05T17:43:19.800Z,90.8
2022-10-05T17:49:19.771Z,90.6
2022-10-05T17:55:24.677Z,89.9
2022-10-05T18:01:19.893Z,89.9
2022-10-05T18:07:19.797Z,87.7
2022-10-05T18:13:19.792Z,88.1
2022-10-05T18:19:19.795Z,87.1
2022-10-05T18:25:19.818Z,86.3
2022-10-05T18:31:19.818Z,86.3
2022-10-05T18:37:19.817Z,86.8
2022-10-05T18:43:19.787Z,87.2
2022-10-05T18:49:19.796Z,87.4
2022-10-05T18:55:19.803Z,87.2
2022-10-05T19:01:19.951Z,87.7
2022-10-05T19:07:19.778Z,87.5
2022-10-05T19:13:19.901Z,85.4
2022-10-05T19:19:27.205Z,84
2022-10-05T19:25:19.794Z,83.1
2022-10-05T19:31:19.941Z,83.3
2022-10-05T19:37:19.806Z,84.3
2022-10-05T19:43:19.822Z,86.2
2022-10-05T19:49:19.825Z,82.9
2022-10-05T19:55:19.853Z,81.9
2022-10-05T20:01:19.846Z,80.8
2022-10-05T20:07:19.835Z,81.1
2022-10-05T20:13:19.810Z,81.6
2022-10-05T20:19:19.808Z,81
2022-10-05T20:25:19.812Z,81.4
2022-10-05T20:31:19.922Z,80.2
2022-10-05T20:37:19.833Z,79.6
2022-10-05T20:43:19.826Z,80.1
2022-10-05T20:49:19.786Z,78.6
2022-10-05T20:55:19.808Z,79
2022-10-05T21:01:20.041Z,78.8
2022-10-05T21:07:19.860Z,78.7
2022-10-05T21:13:19.804Z,79.9
2022-10-05T21:19:19.843Z,80.1
2022-10-05T21:25:19.815Z,80.8
2022-10-05T21:31:19.872Z,79.9
2022-10-05T21:37:19.828Z,80.6
2022-10-05T21:43:19.826Z,80.2
2022-10-05T21:49:19.986Z,80
2022-10-05T21:55:19.839Z,81
2022-10-05T22:01:22.640Z,81.9
2022-10-05T22:07:19.807Z,81.6
2022-10-05T22:13:19.827Z,81.1
2022-10-05T22:19:19.846Z,82
2022-10-05T22:25:19.814Z,83.1
2022-10-05T22:31:19.906Z,82.3
2022-10-05T22:37:19.838Z,83.8
2022-10-05T22:43:19.805Z,84.3
2022-10-05T22:49:19.841Z,85
2022-10-05T22:55:19.843Z,85.1
2022-10-05T23:01:19.891Z,88.6
2022-10-05T23:07:19.865Z,93.6
2022-10-05T23:13:19.827Z,98
2022-10-05T23:19:19.857Z,98.5
2022-10-05T23:25:19.829Z,99
2022-10-05T23:31:19.883Z,99.2
2022-10-05T23:37:19.830Z,98.7
2022-10-05T23:43:19.857Z,99.8
2022-10-05T23:49:19.839Z,100
2022-10-05T23:55:19.837Z,100
